Time;durP1;ratioP1;P1;durP2;ratioP2;P2;SDS_P1;SDS_P2;PMS_P1;PMS_P2;Temp;Humidity;BMP_temperature;BMP_pressure;BME280_temperature;BME280_humidity;BME280_pressure;Samples;Min_cycle;Max_cycle;Signal;HPM_P1;HPM_P2
2021/06/14 00:02:05;;;;;;;5.53;4.07;;;18.70;55.70;;;;;;4995346;28;20222;-90
2021/06/14 00:04:31;;;;;;;4.33;3.93;;;18.70;56.20;;;;;;5059804;28;20212;-90
2021/06/14 00:06:57;;;;;;;4.53;3.73;;;18.80;56.10;;;;;;5042696;28;20190;-90
2021/06/14 00:09:24;;;;;;;4.43;4.03;;;18.80;55.70;;;;;;5042397;28;20182;-90
2021/06/14 00:11:51;;;;;;;4.07;3.67;;;18.60;56.40;;;;;;5059895;28;20203;-90
2021/06/14 00:14:18;;;;;;;4.37;3.80;;;18.60;56.60;;;;;;5060206;28;20591;-90
2021/06/14 00:16:44;;;;;;;4.22;3.83;;;18.70;56.30;;;;;;5059697;28;20177;-90
2021/06/14 00:19:10;;;;;;;4.03;3.63;;;18.70;56.00;;;;;;5041747;28;20188;-90
2021/06/14 00:21:37;;;;;;;3.97;3.58;;;18.80;56.30;;;;;;5059026;28;20179;-90
2021/06/14 00:24:04;;;;;;;4.28;3.88;;;18.90;56.80;;;;;;5022074;28;20228;-90
2021/06/14 00:26:29;;;;;;;4.55;3.50;;;19.10;55.40;;;;;;5038187;28;20285;-89
2021/06/14 00:28:55;;;;;;;4.50;4.07;;;18.70;56.00;;;;;;5053584;28;20200;-91
2021/06/14 00:31:21;;;;;;;4.60;4.07;;;18.40;57.40;;;;;;5042729;28;20226;-90
2021/06/14 00:33:47;;;;;;;4.30;3.90;;;18.30;57.70;;;;;;5061383;28;20215;-89
2021/06/14 00:36:12;;;;;;;5.03;4.30;;;18.20;58.30;;;;;;5069907;28;20241;-89
2021/06/14 00:38:38;;;;;;;4.20;3.80;;;18.20;58.30;;;;;;5042372;28;20262;-90
2021/06/14 00:41:06;;;;;;;6.93;4.50;;;18.30;58.70;;;;;;5052927;28;20217;-90
2021/06/14 00:43:33;;;;;;;4.37;3.80;;;18.50;57.90;;;;;;5051238;28;20228;-90
2021/06/14 00:45:59;;;;;;;8.77;4.40;;;18.30;58.50;;;;;;5051318;28;20182;-90
2021/06/14 00:48:25;;;;;;;4.37;3.97;;;18.40;57.80;;;;;;5068307;28;20195;-90
2021/06/14 00:50:54;;;;;;;4.00;3.70;;;18.40;57.70;;;;;;5066803;28;20178;-90
2021/06/14 00:53:29;;;;;;;4.57;3.80;;;18.40;58.10;;;;;;5026342;28;20678;-90
2021/06/14 00:55:57;;;;;;;5.23;4.03;;;18.20;59.40;;;;;;5039837;28;20214;-90
2021/06/14 00:58:23;;;;;;;4.53;4.13;;;17.90;59.90;;;;;;5057773;28;20188;-91
2021/06/14 01:00:50;;;;;;;4.50;4.10;;;17.80;60.40;;;;;;5042587;28;20190;-89
2021/06/14 01:03:15;;;;;;;6.07;4.47;;;17.80;60.40;;;;;;5061853;28;20672;-90
2021/06/14 01:06:03;;;;;;;3.70;3.40;;;17.80;60.50;;;;;;5043689;28;20230;-89
2021/06/14 01:08:31;;;;;;;4.83;4.10;;;17.90;60.70;;;;;;5047488;28;20208;-91
2021/06/14 01:11:00;;;;;;;4.10;3.70;;;18.30;59.60;;;;;;5060160;28;20174;-91
2021/06/14 01:13:25;;;;;;;3.93;3.63;;;18.40;58.30;;;;;;5025686;28;20215;-91
2021/06/14 01:16:26;;;;;;;4.47;4.00;;;18.10;59.00;;;;;;5062174;28;20240;-90
2021/06/14 01:18:54;;;;;;;8.57;4.17;;;17.80;59.90;;;;;;4993293;28;20193;-90
2021/06/14 01:21:27;;;;;;;4.53;4.13;;;17.60;59.60;;;;;;5061584;28;20170;-90
2021/06/14 01:24:14;;;;;;;3.90;3.60;;;17.70;59.80;;;;;;5046373;28;20215;-90
2021/06/14 01:26:58;;;;;;;4.57;4.07;;;17.60;60.10;;;;;;5026118;28;20196;-90
2021/06/14 01:29:24;;;;;;;6.80;4.20;;;17.60;60.00;;;;;;5041396;28;20232;-90
2021/06/14 01:31:51;;;;;;;4.80;4.30;;;17.40;59.70;;;;;;5040787;28;20779;-91
2021/06/14 01:34:17;;;;;;;4.63;4.03;;;17.40;60.60;;;;;;5023627;28;20192;-89
2021/06/14 01:36:44;;;;;;;3.80;3.40;;;17.50;60.40;;;;;;5023136;28;20193;-90
2021/06/14 01:39:10;;;;;;;4.93;3.90;;;17.60;60.90;;;;;;5023308;28;20188;-90
2021/06/14 01:41:37;;;;;;;4.40;4.00;;;17.90;60.30;;;;;;5023181;28;20189;-89
2021/06/14 01:44:05;;;;;;;5.70;3.90;;;18.20;59.70;;;;;;5019130;28;20217;-90
2021/06/14 01:46:36;;;;;;;5.30;3.90;;;18.50;58.50;;;;;;5062046;28;20321;-89
2021/06/14 01:49:07;;;;;;;4.18;3.63;;;18.70;58.20;;;;;;5043240;28;20183;-90
2021/06/14 01:51:36;;;;;;;4.03;3.72;;;18.90;57.80;;;;;;5060337;28;20178;-90
2021/06/14 01:54:02;;;;;;;4.70;3.78;;;19.10;56.40;;;;;;5060271;28;20272;-91
2021/06/14 01:56:33;;;;;;;4.38;3.97;;;19.10;57.20;;;;;;5042541;28;20695;-89
2021/06/14 01:59:01;;;;;;;6.07;3.88;;;19.10;55.80;;;;;;5042403;28;20180;-90
2021/06/14 02:01:29;;;;;;;4.63;4.00;;;18.80;55.30;;;;;;4987203;28;20195;-89
2021/06/14 02:03:56;;;;;;;5.23;4.00;;;18.40;56.40;;;;;;5003337;28;20630;-90
2021/06/14 02:06:24;;;;;;;3.77;3.43;;;18.00;57.00;;;;;;5003382;28;20231;-91
2021/06/14 02:08:50;;;;;;;6.10;3.77;;;17.80;58.20;;;;;;4986915;28;20851;-91
2021/06/14 02:11:17;;;;;;;6.07;3.93;;;17.80;58.80;;;;;;5001517;28;20187;-91
2021/06/14 02:13:45;;;;;;;4.43;3.87;;;17.90;57.60;;;;;;5003223;28;20647;-91
2021/06/14 02:16:12;;;;;;;5.30;3.87;;;17.90;57.70;;;;;;5020252;28;20196;-91
2021/06/14 02:18:38;;;;;;;5.53;3.83;;;18.10;58.30;;;;;;5002407;28;20202;-91
2021/06/14 02:21:04;;;;;;;4.43;3.60;;;18.20;57.10;;;;;;5002457;28;20191;-91
2021/06/14 02:23:30;;;;;;;6.90;3.87;;;18.40;56.40;;;;;;5002609;28;20203;-91
2021/06/14 02:25:56;;;;;;;7.13;3.80;;;18.40;55.90;;;;;;4986715;28;20202;-91
2021/06/14 02:28:21;;;;;;;6.87;4.03;;;18.10;56.50;;;;;;5020296;28;20186;-89
2021/06/14 02:30:47;;;;;;;4.90;4.37;;;18.00;57.50;;;;;;5020268;28;20241;-90
2021/06/14 02:33:13;;;;;;;4.67;4.03;;;17.80;57.60;;;;;;5020607;28;20208;-90
2021/06/14 02:35:39;;;;;;;4.80;4.23;;;17.70;57.90;;;;;;4972655;28;20198;-90
2021/06/14 02:38:07;;;;;;;6.40;4.23;;;17.60;58.40;;;;;;5041627;28;20602;-90
2021/06/14 02:40:33;;;;;;;4.10;3.80;;;17.40;59.00;;;;;;5041546;28;20185;-90
2021/06/14 02:43:03;;;;;;;5.63;4.80;;;17.40;59.10;;;;;;5041531;28;20204;-90
2021/06/14 02:45:30;;;;;;;4.20;3.80;;;17.30;59.50;;;;;;5025092;28;20215;-90
2021/06/14 02:47:57;;;;;;;4.47;4.07;;;17.20;60.40;;;;;;5041097;28;20190;-90
2021/06/14 02:50:23;;;;;;;5.33;4.07;;;17.30;60.10;;;;;;5059422;28;20180;-90
2021/06/14 02:52:52;;;;;;;6.50;3.87;;;17.40;59.20;;;;;;5047195;28;20216;-90
2021/06/14 02:55:24;;;;;;;4.03;3.63;;;17.40;59.00;;;;;;5074753;28;20172;-89
2021/06/14 02:57:57;;;;;;;6.63;4.23;;;17.30;59.30;;;;;;5061975;28;20169;-90
2021/06/14 03:00:26;;;;;;;5.60;4.30;;;17.30;59.50;;;;;;5059011;28;20252;-89
2021/06/14 03:03:04;;;;;;;4.90;4.40;;;17.50;59.00;;;;;;5041528;28;20675;-90
2021/06/14 03:05:30;;;;;;;5.50;4.10;;;17.40;59.20;;;;;;5041836;28;20267;-90
2021/06/14 03:07:58;;;;;;;5.33;3.97;;;17.40;59.50;;;;;;5040722;28;20176;-89
2021/06/14 03:10:26;;;;;;;6.93;4.17;;;17.30;59.20;;;;;;5058006;28;20649;-89
2021/06/14 03:12:53;;;;;;;4.37;3.93;;;17.30;59.50;;;;;;5042895;28;20261;-91
2021/06/14 03:15:19;;;;;;;8.50;4.53;;;17.10;60.20;;;;;;5038833;28;20268;-90
2021/06/14 03:17:45;;;;;;;5.00;4.60;;;16.90;61.30;;;;;;5020032;28;20224;-90
2021/06/14 03:20:12;;;;;;;5.20;3.93;;;16.90;61.20;;;;;;5004034;28;20196;-89
2021/06/14 03:22:39;;;;;;;4.90;4.40;;;16.60;61.80;;;;;;5037416;28;20209;-89
2021/06/14 03:25:06;;;;;;;5.30;4.80;;;16.60;62.50;;;;;;5037893;28;20208;-90
2021/06/14 03:27:31;;;;;;;5.40;4.57;;;16.60;62.40;;;;;;5003836;28;20200;-89
2021/06/14 03:29:58;;;;;;;5.93;4.43;;;16.40;63.00;;;;;;5044899;28;20259;-90
2021/06/14 03:32:24;;;;;;;6.63;4.70;;;16.40;63.00;;;;;;5037328;28;20216;-89
2021/06/14 03:34:52;;;;;;;9.47;5.13;;;16.20;63.60;;;;;;5019711;28;20183;-90
2021/06/14 03:37:18;;;;;;;4.93;4.43;;;16.30;63.70;;;;;;5003613;28;20191;-89
2021/06/14 03:39:44;;;;;;;5.00;4.20;;;16.30;63.50;;;;;;5002715;28;20196;-89
2021/06/14 03:42:09;;;;;;;4.77;4.07;;;16.30;63.50;;;;;;5002208;28;20214;-90
2021/06/14 03:44:36;;;;;;;6.00;4.03;;;16.30;63.50;;;;;;5037490;28;20203;-90
2021/06/14 03:47:02;;;;;;;6.77;4.67;;;16.20;63.80;;;;;;5003372;28;20638;-89
2021/06/14 03:49:27;;;;;;;4.83;4.40;;;16.20;63.80;;;;;;5004942;28;20190;-89
2021/06/14 03:51:53;;;;;;;4.50;4.10;;;16.40;63.60;;;;;;5021367;28;20546;-90
2021/06/14 03:54:19;;;;;;;5.63;4.53;;;16.60;62.50;;;;;;5039034;28;20671;-90
2021/06/14 03:56:44;;;;;;;4.73;3.87;;;16.70;62.00;;;;;;5021891;28;20246;-90
2021/06/14 03:59:10;;;;;;;4.47;4.07;;;16.80;61.70;;;;;;5038513;28;20177;-90
2021/06/14 04:01:35;;;;;;;4.70;4.30;;;17.00;61.30;;;;;;5018746;28;20222;-90
2021/06/14 04:06:30;;;;;;;7.47;4.73;;;17.10;60.90;;;;;;5037905;28;20188;-90
2021/06/14 04:08:56;;;;;;;5.20;4.17;;;17.10;60.40;;;;;;5020200;28;20185;-90
2021/06/14 04:11:21;;;;;;;5.63;4.07;;;17.10;61.10;;;;;;5020397;28;20733;-90
2021/06/14 04:13:50;;;;;;;6.50;4.17;;;17.00;61.20;;;;;;5020348;28;20222;-90
2021/06/14 04:16:17;;;;;;;5.30;4.00;;;17.00;61.40;;;;;;5038117;28;20181;-89
2021/06/14 04:18:43;;;;;;;6.03;4.50;;;16.80;61.70;;;;;;5031336;28;20198;-90
2021/06/14 04:21:08;;;;;;;4.57;4.17;;;16.70;62.50;;;;;;5057559;28;20360;-90
2021/06/14 04:23:34;;;;;;;5.13;4.13;;;16.80;62.20;;;;;;5036036;28;20232;-90
2021/06/14 04:26:00;;;;;;;6.20;3.97;;;16.90;62.00;;;;;;5057332;28;20208;-90
2021/06/14 04:28:25;;;;;;;8.87;4.50;;;16.90;62.20;;;;;;5057990;28;20175;-90
2021/06/14 04:30:51;;;;;;;4.83;4.33;;;17.00;61.50;;;;;;5050782;28;20344;-90
2021/06/14 04:33:17;;;;;;;4.50;4.10;;;16.90;61.70;;;;;;5035495;28;20205;-90
2021/06/14 04:35:43;;;;;;;4.97;4.43;;;17.00;62.40;;;;;;5002729;28;20228;-90
2021/06/14 04:38:08;;;;;;;5.17;4.30;;;17.20;62.60;;;;;;4987483;28;20186;-91
2021/06/14 04:40:34;;;;;;;4.60;4.20;;;17.40;60.50;;;;;;5003216;28;20182;-91
2021/06/14 04:43:01;;;;;;;5.17;4.07;;;17.30;60.70;;;;;;4987719;28;20213;-90
2021/06/14 04:45:27;;;;;;;5.10;4.07;;;17.40;60.80;;;;;;5012434;28;20214;-90
2021/06/14 04:47:52;;;;;;;4.87;4.10;;;17.40;60.50;;;;;;5054516;28;20187;-89
2021/06/14 04:50:18;;;;;;;4.50;3.77;;;17.30;60.80;;;;;;5040155;28;20189;-90
2021/06/14 04:52:43;;;;;;;11.70;4.80;;;17.20;61.50;;;;;;4990321;28;20201;-90
2021/06/14 04:55:09;;;;;;;4.30;3.90;;;17.20;62.00;;;;;;5041696;28;20180;-89
2021/06/14 04:57:35;;;;;;;4.97;3.87;;;17.20;61.70;;;;;;5011637;28;20201;-90
2021/06/14 05:00:01;;;;;;;5.03;4.40;;;17.30;61.90;;;;;;5021448;28;20190;-90
2021/06/14 05:02:27;;;;;;;5.47;4.40;;;17.40;60.50;;;;;;5018144;28;20211;-89
2021/06/14 05:04:53;;;;;;;4.43;4.03;;;17.40;60.50;;;;;;5018203;28;20579;-89
2021/06/14 05:07:18;;;;;;;5.20;4.50;;;17.40;61.00;;;;;;5019989;28;20197;-90
2021/06/14 05:09:44;;;;;;;4.87;4.00;;;17.50;61.10;;;;;;5033648;28;20180;-90
2021/06/14 05:12:10;;;;;;;4.43;3.73;;;17.40;60.80;;;;;;5059130;28;20207;-90
2021/06/14 05:14:36;;;;;;;7.53;4.10;;;17.50;61.30;;;;;;5042249;28;20188;-89
2021/06/14 05:17:02;;;;;;;4.23;3.87;;;17.50;61.80;;;;;;5045510;28;20200;-89
2021/06/14 05:19:27;;;;;;;10.40;4.57;;;17.60;61.10;;;;;;5041566;28;20691;-90
2021/06/14 05:21:53;;;;;;;4.10;3.63;;;17.70;60.50;;;;;;5039712;28;20289;-90
2021/06/14 05:24:19;;;;;;;6.43;4.13;;;17.80;59.50;;;;;;5003126;28;20304;-89
2021/06/14 05:26:44;;;;;;;4.97;4.30;;;17.80;59.50;;;;;;5030031;28;20212;-89
2021/06/14 05:29:10;;;;;;;8.50;4.20;;;17.80;59.30;;;;;;5038553;28;20184;-90
2021/06/14 05:31:35;;;;;;;6.93;4.73;;;17.90;59.80;;;;;;5035664;28;20552;-90
2021/06/14 05:34:01;;;;;;;6.03;4.07;;;17.90;59.40;;;;;;5036241;28;20212;-90
2021/06/14 05:36:27;;;;;;;5.17;4.13;;;18.10;60.00;;;;;;5018998;28;20212;-90
2021/06/14 05:38:52;;;;;;;5.57;3.97;;;18.20;58.90;;;;;;5024520;28;20683;-90
2021/06/14 05:41:18;;;;;;;3.97;3.57;;;18.30;58.70;;;;;;5015114;28;20603;-90
2021/06/14 05:43:44;;;;;;;4.40;3.67;;;18.40;58.20;;;;;;5055494;28;20236;-90
2021/06/14 05:46:09;;;;;;;5.07;3.65;;;18.40;58.50;;;;;;5056338;28;20208;-90
2021/06/14 05:48:35;;;;;;;6.03;4.00;;;18.60;57.70;;;;;;5004354;28;20192;-91
2021/06/14 05:51:00;;;;;;;5.50;3.80;;;18.70;56.50;;;;;;5002161;28;20190;-90
2021/06/14 05:53:26;;;;;;;7.53;4.40;;;18.70;57.70;;;;;;4983852;28;20368;-90
2021/06/14 05:55:52;;;;;;;5.87;4.23;;;18.70;56.00;;;;;;5018918;28;20186;-90
2021/06/14 05:58:18;;;;;;;4.07;3.67;;;18.70;56.10;;;;;;5018304;28;20194;-90
2021/06/14 06:00:44;;;;;;;6.97;4.05;;;18.80;56.20;;;;;;5035921;28;20743;-90
2021/06/14 06:03:10;;;;;;;4.47;3.80;;;18.90;55.60;;;;;;5035075;28;20586;-90
2021/06/14 06:05:36;;;;;;;6.90;4.03;;;18.80;55.00;;;;;;5035311;28;20737;-90
2021/06/14 06:08:02;;;;;;;5.72;4.18;;;18.90;55.90;;;;;;4985247;28;20218;-90
2021/06/14 06:10:28;;;;;;;6.05;4.40;;;19.00;55.10;;;;;;5001979;28;20189;-90
2021/06/14 06:12:54;;;;;;;4.25;3.80;;;19.10;55.00;;;;;;5017280;28;20514;-90
2021/06/14 06:15:20;;;;;;;5.45;3.55;;;19.10;54.30;;;;;;5001238;28;20275;-90
2021/06/14 06:17:46;;;;;;;6.13;4.40;;;19.20;54.50;;;;;;5035901;28;20272;-90
2021/06/14 06:20:14;;;;;;;5.32;3.95;;;19.40;54.10;;;;;;5018825;28;20282;-90
2021/06/14 06:22:41;;;;;;;6.57;3.83;;;19.40;53.70;;;;;;5028198;28;20224;-90
2021/06/14 06:25:21;;;;;;;8.30;4.38;;;19.50;53.20;;;;;;5008145;28;20212;-91
2021/06/14 06:27:48;;;;;;;6.20;3.80;;;19.50;53.40;;;;;;5032022;28;20176;-91
2021/06/14 06:30:16;;;;;;;5.25;4.30;;;19.60;53.30;;;;;;5012218;28;20247;-90
2021/06/14 06:32:42;;;;;;;4.75;4.15;;;19.70;53.10;;;;;;5015773;28;20262;-90
2021/06/14 06:35:08;;;;;;;4.50;3.67;;;19.80;52.70;;;;;;5015774;28;20229;-91
2021/06/14 06:37:34;;;;;;;5.97;3.88;;;19.70;53.10;;;;;;5015414;28;20641;-90
2021/06/14 06:39:59;;;;;;;4.40;4.00;;;19.70;52.90;;;;;;4998005;28;20203;-90
2021/06/14 06:42:25;;;;;;;5.40;4.07;;;19.70;53.20;;;;;;4998411;28;20205;-90
2021/06/14 06:44:52;;;;;;;4.18;3.78;;;19.90;53.60;;;;;;5015780;28;20283;-90
2021/06/14 06:47:17;;;;;;;8.68;4.25;;;20.00;53.50;;;;;;5014064;28;20245;-90
2021/06/14 06:49:43;;;;;;;6.82;4.57;;;20.10;52.60;;;;;;5015669;28;20675;-90
2021/06/14 06:52:11;;;;;;;5.90;4.25;;;20.20;52.70;;;;;;4998933;28;20204;-90
2021/06/14 06:54:37;;;;;;;4.47;3.78;;;20.40;52.20;;;;;;5013150;28;20182;-90
2021/06/14 06:57:03;;;;;;;5.85;4.57;;;20.40;51.80;;;;;;5013424;28;20260;-90
2021/06/14 06:59:29;;;;;;;6.00;3.70;;;20.40;51.70;;;;;;5011897;28;20185;-90
2021/06/14 07:01:54;;;;;;;5.03;4.18;;;20.50;52.70;;;;;;5030439;28;20645;-90
2021/06/14 07:04:20;;;;;;;4.88;3.97;;;20.60;51.60;;;;;;5035669;28;20219;-90
2021/06/14 07:06:46;;;;;;;5.50;4.15;;;20.70;51.40;;;;;;5034977;28;20639;-90
2021/06/14 07:09:12;;;;;;;5.28;4.07;;;20.80;50.90;;;;;;5053700;28;20639;-90
2021/06/14 07:11:37;;;;;;;4.53;4.13;;;21.00;50.80;;;;;;5035540;28;20271;-90
2021/06/14 07:14:03;;;;;;;4.53;3.95;;;21.10;50.50;;;;;;5053300;28;20680;-90
2021/06/14 07:16:30;;;;;;;4.60;4.13;;;21.20;49.80;;;;;;5053699;28;20187;-90
2021/06/14 07:18:55;;;;;;;6.97;4.07;;;21.20;50.20;;;;;;5035606;28;20618;-90
2021/06/14 07:21:22;;;;;;;7.70;4.20;;;21.40;50.00;;;;;;5053931;28;20178;-90
2021/06/14 07:23:49;;;;;;;6.22;3.55;;;21.60;49.10;;;;;;5057107;28;20202;-91
2021/06/14 07:26:15;;;;;;;4.50;4.10;;;21.70;47.60;;;;;;5038898;28;20233;-90
2021/06/14 07:28:41;;;;;;;5.13;3.88;;;21.80;48.50;;;;;;5024393;28;20291;-90
2021/06/14 07:31:09;;;;;;;4.32;3.72;;;22.00;48.30;;;;;;5040952;28;20191;-90
2021/06/14 07:33:36;;;;;;;6.53;3.83;;;22.00;47.90;;;;;;5002386;28;20204;-91
2021/06/14 07:36:04;;;;;;;6.85;3.92;;;22.10;47.40;;;;;;5000208;28;20545;-91
2021/06/14 07:38:30;;;;;;;6.30;3.78;;;22.20;47.30;;;;;;5018916;28;20185;-91
2021/06/14 07:40:56;;;;;;;8.27;4.13;;;22.30;47.00;;;;;;5037178;28;20196;-91
2021/06/14 07:43:22;;;;;;;4.85;4.20;;;22.20;46.00;;;;;;5019436;28;20205;-89
2021/06/14 07:45:48;;;;;;;5.15;4.22;;;22.30;47.00;;;;;;5019813;28;20582;-90
2021/06/14 07:48:15;;;;;;;5.85;4.22;;;22.40;47.00;;;;;;5021669;28;20176;-90
2021/06/14 07:50:42;;;;;;;5.20;4.10;;;22.50;47.30;;;;;;5039880;28;20350;-91
2021/06/14 07:53:08;;;;;;;6.28;4.00;;;22.50;47.20;;;;;;5025909;28;20224;-91
2021/06/14 07:55:35;;;;;;;4.75;3.90;;;22.50;46.70;;;;;;5040922;28;20186;-90
2021/06/14 07:58:01;;;;;;;8.18;4.20;;;22.60;46.00;;;;;;5056663;28;20575;-91
2021/06/14 08:00:27;;;;;;;5.70;3.85;;;22.60;46.80;;;;;;5029720;28;20208;-91
2021/06/14 08:02:55;;;;;;;5.60;4.10;;;22.70;45.90;;;;;;5020030;28;20216;-91
2021/06/14 08:05:21;;;;;;;4.47;4.00;;;22.90;46.00;;;;;;5005194;28;20214;-91
2021/06/14 08:07:48;;;;;;;5.18;3.95;;;23.00;44.70;;;;;;5022084;28;20663;-91
2021/06/14 08:10:16;;;;;;;7.05;4.07;;;23.10;44.50;;;;;;5008895;28;20191;-91
2021/06/14 08:12:49;;;;;;;4.60;4.18;;;23.30;43.70;;;;;;5006493;28;20201;-91
2021/06/14 08:15:22;;;;;;;4.05;3.67;;;23.40;42.80;;;;;;5023240;28;20189;-91
2021/06/14 08:17:48;;;;;;;5.75;3.92;;;23.40;44.30;;;;;;5009662;28;20177;-91
2021/06/14 08:25:28;;;;;;;5.78;4.00;;;23.60;42.50;;;;;;5055638;28;20283;-91
2021/06/14 08:27:54;;;;;;;5.90;4.85;;;23.70;43.60;;;;;;5029727;28;20227;-91
2021/06/14 08:30:22;;;;;;;5.00;4.50;;;23.80;43.60;;;;;;5051850;28;20185;-91
2021/06/14 08:32:49;;;;;;;4.47;4.07;;;23.90;42.80;;;;;;5009348;28;20201;-91
2021/06/14 08:35:16;;;;;;;6.07;4.43;;;24.00;43.20;;;;;;4993004;28;20200;-91
2021/06/14 08:37:45;;;;;;;5.13;4.60;;;24.10;43.30;;;;;;5043283;28;20188;-91
2021/06/14 08:40:13;;;;;;;4.82;4.28;;;24.10;43.60;;;;;;5053022;28;20664;-91
2021/06/14 08:42:38;;;;;;;6.25;4.55;;;24.30;41.90;;;;;;4988545;28;20608;-92
2021/06/14 08:45:06;;;;;;;5.25;4.72;;;24.50;41.40;;;;;;5009548;28;20208;-92
2021/06/14 08:47:35;;;;;;;5.97;4.60;;;24.60;41.10;;;;;;5023008;28;20555;-91
2021/06/14 08:50:01;;;;;;;4.43;4.03;;;24.70;41.10;;;;;;5025519;28;20177;-91
2021/06/14 08:52:27;;;;;;;7.80;4.13;;;24.70;42.00;;;;;;5009561;28;20201;-91
2021/06/14 08:54:52;;;;;;;5.65;4.18;;;24.80;41.70;;;;;;4993655;28;20217;-91
2021/06/14 08:57:18;;;;;;;5.18;4.68;;;24.80;41.00;;;;;;5043480;28;20220;-92
2021/06/14 08:59:44;;;;;;;7.35;4.72;;;24.80;41.50;;;;;;5027940;28;20192;-92
2021/06/14 09:02:11;;;;;;;4.20;3.83;;;25.00;40.70;;;;;;5026236;28;20627;-90
2021/06/14 09:04:37;;;;;;;4.70;4.20;;;25.10;41.00;;;;;;5024388;28;20262;-90
2021/06/14 09:07:04;;;;;;;6.43;4.85;;;25.30;40.10;;;;;;5024566;28;20181;-90
2021/06/14 09:09:31;;;;;;;6.00;3.97;;;25.20;39.20;;;;;;5024098;28;20272;-90
2021/06/14 09:12:01;;;;;;;4.78;4.15;;;25.30;39.80;;;;;;5006574;28;20178;-90
2021/06/14 09:14:31;;;;;;;5.22;4.43;;;25.30;39.80;;;;;;5023724;28;20172;-92
2021/06/14 09:17:07;;;;;;;5.03;4.45;;;25.30;40.00;;;;;;5009558;28;20192;-91
2021/06/14 09:19:43;;;;;;;5.50;4.22;;;25.60;39.80;;;;;;5010527;28;20184;-91
2021/06/14 09:22:10;;;;;;;4.88;4.35;;;25.80;38.40;;;;;;5026448;28;20200;-92
2021/06/14 09:24:36;;;;;;;5.57;3.85;;;25.50;39.20;;;;;;5059127;28;20201;-92
2021/06/14 09:27:02;;;;;;;7.35;4.63;;;25.40;39.00;;;;;;5014986;28;20208;-92
2021/06/14 09:29:29;;;;;;;4.57;4.13;;;25.70;39.40;;;;;;5026842;28;20204;-92
2021/06/14 09:32:00;;;;;;;8.65;4.45;;;25.80;38.50;;;;;;5044650;28;20165;-92
2021/06/14 09:34:41;;;;;;;4.75;4.20;;;26.10;38.20;;;;;;5012035;28;20213;-92
2021/06/14 09:37:09;;;;;;;4.93;4.35;;;26.20;37.70;;;;;;5039022;28;20575;-90
2021/06/14 09:39:41;;;;;;;5.00;4.40;;;26.30;37.40;;;;;;5012974;28;20185;-93
2021/06/14 09:42:26;;;;;;;4.55;4.15;;;26.40;37.00;;;;;;5005849;28;20245;-94
2021/06/14 09:44:54;;;;;;;4.68;4.28;;;26.40;37.50;;;;;;5038336;28;20223;-92
2021/06/14 09:47:20;;;;;;;9.63;4.28;;;26.80;37.70;;;;;;5026612;28;20177;-92
2021/06/14 09:50:01;;;;;;;6.30;4.00;;;27.10;37.40;;;;;;5027887;28;20288;-92
2021/06/14 09:52:28;;;;;;;4.32;3.90;;;27.30;35.00;;;;;;4994550;28;20212;-93
2021/06/14 09:55:06;;;;;;;5.32;4.38;;;27.50;35.50;;;;;;5010814;28;20216;-93
2021/06/14 09:57:32;;;;;;;7.38;4.40;;;27.50;35.50;;;;;;5026997;28;20494;-92
2021/06/14 10:00:15;;;;;;;6.78;4.30;;;27.40;35.40;;;;;;4996596;28;20441;-93
2021/06/14 10:02:41;;;;;;;4.50;4.07;;;27.50;35.60;;;;;;5009380;28;20201;-94
2021/06/14 10:05:19;;;;;;;4.85;4.03;;;27.60;35.50;;;;;;5025565;28;20208;-91
2021/06/14 10:07:47;;;;;;;4.55;4.15;;;27.80;35.30;;;;;;5024856;28;20196;-92
2021/06/14 10:10:21;;;;;;;5.53;4.30;;;28.00;34.70;;;;;;5026207;28;20177;-92
2021/06/14 10:12:55;;;;;;;5.25;4.75;;;28.10;34.20;;;;;;5025994;28;20197;-93
2021/06/14 10:15:50;;;;;;;4.75;4.35;;;28.30;33.40;;;;;;5011636;28;20212;-93
2021/06/14 10:18:28;;;;;;;4.80;4.05;;;28.30;33.30;;;;;;5007163;28;20281;-93
2021/06/14 10:20:54;;;;;;;5.05;4.28;;;28.20;33.40;;;;;;5024702;28;20185;-92
2021/06/14 10:23:20;;;;;;;6.20;4.38;;;28.10;33.80;;;;;;5025921;28;20276;-93
2021/06/14 10:25:45;;;;;;;4.70;4.20;;;27.90;34.40;;;;;;4991768;28;20288;-93
2021/06/14 10:28:12;;;;;;;6.68;4.53;;;28.00;34.60;;;;;;4991799;28;20201;-94
2021/06/14 10:30:38;;;;;;;6.85;4.20;;;27.80;35.30;;;;;;5007501;28;20708;-93
2021/06/14 10:33:05;;;;;;;7.82;4.40;;;28.00;34.50;;;;;;5026093;28;20205;-94
2021/06/14 10:35:31;;;;;;;6.68;4.70;;;28.10;34.40;;;;;;5030396;28;20188;-94
2021/06/14 10:38:02;;;;;;;5.07;4.13;;;28.20;34.20;;;;;;5031320;28;20267;-94
2021/06/14 10:40:27;;;;;;;6.82;4.40;;;28.30;33.40;;;;;;5029817;28;20177;-94
2021/06/14 10:42:54;;;;;;;4.97;4.20;;;28.30;33.10;;;;;;5026275;28;20576;-95
2021/06/14 10:45:26;;;;;;;6.68;4.00;;;28.20;34.00;;;;;;5027484;28;20220;-93
2021/06/14 10:47:52;;;;;;;5.53;4.40;;;28.60;32.80;;;;;;4996175;28;20196;-93
2021/06/14 10:50:31;;;;;;;4.80;4.40;;;28.90;31.50;;;;;;5045343;28;20185;-94
2021/06/14 10:53:04;;;;;;;5.15;4.55;;;29.10;32.60;;;;;;5162296;27;147195;-86
2021/06/14 10:55:32;;;;;;;6.85;4.07;;;29.20;30.80;;;;;;5128181;27;20215;-87
2021/06/14 10:57:58;;;;;;;6.15;4.32;;;28.90;31.10;;;;;;5124806;28;20207;-86
2021/06/14 11:00:32;;;;;;;5.13;4.50;;;29.00;31.70;;;;;;5116115;27;20614;-87
2021/06/14 11:03:13;;;;;;;5.03;4.50;;;29.20;31.60;;;;;;5131785;27;20243;-88
2021/06/14 11:05:46;;;;;;;5.00;4.50;;;29.40;30.80;;;;;;5120628;27;20283;-89
2021/06/14 11:08:17;;;;;;;9.18;4.30;;;29.70;30.00;;;;;;5129912;28;20272;-88
2021/06/14 11:11:06;;;;;;;4.65;3.75;;;29.70;29.90;;;;;;5121555;28;20182;-88
2021/06/14 11:13:33;;;;;;;6.82;4.97;;;29.60;29.90;;;;;;5125234;27;20185;-87
2021/06/14 11:16:06;;;;;;;4.97;4.38;;;30.10;30.00;;;;;;5131704;27;20731;-88
2021/06/14 11:18:32;;;;;;;4.78;4.28;;;30.10;30.00;;;;;;5116181;27;20174;-88
2021/06/14 11:21:09;;;;;;;5.03;4.63;;;30.30;29.90;;;;;;5119468;28;20186;-88
2021/06/14 11:23:37;;;;;;;6.05;4.00;;;30.60;29.60;;;;;;5124235;28;20908;-88
2021/06/14 11:26:04;;;;;;;9.70;4.22;;;30.40;29.50;;;;;;5129357;27;20205;-88
2021/06/14 11:28:33;;;;;;;4.70;4.20;;;30.40;28.50;;;;;;5109570;28;20667;-89
2021/06/14 11:31:00;;;;;;;4.97;4.50;;;30.50;27.80;;;;;;5126786;28;20233;-88
2021/06/14 11:33:28;;;;;;;5.85;4.10;;;30.50;28.70;;;;;;5121982;28;20186;-88
2021/06/14 11:36:14;;;;;;;4.32;3.92;;;30.50;28.70;;;;;;5131619;27;20221;-86
2021/06/14 11:38:39;;;;;;;5.20;4.60;;;30.80;28.90;;;;;;5128508;28;20349;-87
2021/06/14 11:41:05;;;;;;;4.82;4.28;;;31.10;28.60;;;;;;5120219;28;20274;-87
2021/06/14 11:43:31;;;;;;;5.18;4.40;;;31.60;27.60;;;;;;5116827;28;20191;-88
2021/06/14 11:45:58;;;;;;;4.60;4.20;;;31.90;26.40;;;;;;5133058;27;20763;-90
2021/06/14 11:48:32;;;;;;;5.60;4.35;;;32.10;26.70;;;;;;5115344;27;20243;-89
2021/06/14 11:51:09;;;;;;;6.10;4.35;;;32.00;27.00;;;;;;5128980;28;20676;-88
2021/06/14 11:53:43;;;;;;;4.97;4.05;;;32.00;27.20;;;;;;5128212;28;20189;-88
2021/06/14 11:56:12;;;;;;;4.45;4.05;;;32.20;27.00;;;;;;5121041;27;20210;-89
2021/06/14 11:58:41;;;;;;;6.82;4.07;;;32.40;27.10;;;;;;5128509;28;20813;-89
2021/06/14 12:01:07;;;;;;;5.00;4.47;;;32.40;26.80;;;;;;5133045;27;20197;-89
2021/06/14 12:03:33;;;;;;;4.88;4.20;;;32.40;26.60;;;;;;5123187;28;20674;-88
2021/06/14 12:05:59;;;;;;;5.55;4.22;;;32.70;26.90;;;;;;5111753;28;20215;-89
2021/06/14 12:08:26;;;;;;;5.13;4.60;;;32.80;26.20;;;;;;5119844;28;20193;-88
2021/06/14 12:10:54;;;;;;;7.10;4.60;;;32.50;27.20;;;;;;5112494;28;20205;-89
2021/06/14 12:13:22;;;;;;;5.70;3.90;;;31.80;27.70;;;;;;5116888;27;20183;-89
2021/06/14 12:15:51;;;;;;;4.70;4.28;;;32.10;28.20;;;;;;5103155;28;20812;-89
2021/06/14 12:18:18;;;;;;;7.70;4.03;;;32.00;27.60;;;;;;5110280;28;20190;-87
2021/06/14 12:20:51;;;;;;;6.15;4.18;;;31.80;27.60;;;;;;5114867;28;20191;-89
2021/06/14 12:23:17;;;;;;;4.40;4.00;;;32.00;27.60;;;;;;5101096;28;20182;-88
2021/06/14 12:25:48;;;;;;;6.30;4.13;;;32.00;27.40;;;;;;5109229;28;20199;-88
2021/06/14 12:28:21;;;;;;;4.50;4.18;;;32.30;27.30;;;;;;5096282;28;20186;-88
2021/06/14 12:30:58;;;;;;;5.32;3.92;;;32.60;26.60;;;;;;5120426;28;20194;-90
2021/06/14 12:33:26;;;;;;;5.22;4.38;;;32.70;26.90;;;;;;5109106;28;20194;-88
2021/06/14 12:35:53;;;;;;;6.18;4.40;;;33.00;27.10;;;;;;5103618;28;20232;-88
2021/06/14 12:38:19;;;;;;;4.72;4.32;;;33.20;25.80;;;;;;5093739;28;20182;-88
2021/06/14 12:40:45;;;;;;;4.55;4.15;;;33.00;26.00;;;;;;5113317;28;20268;-88
2021/06/14 12:43:12;;;;;;;4.07;3.78;;;32.90;25.30;;;;;;5112323;28;20175;-88
2021/06/14 12:45:39;;;;;;;6.28;4.20;;;32.80;26.20;;;;;;5090734;28;20194;-88
2021/06/14 12:48:08;;;;;;;6.53;4.20;;;33.30;26.30;;;;;;5106017;28;20655;-88
2021/06/14 12:50:38;;;;;;;4.57;4.13;;;33.40;25.70;;;;;;5093789;28;20229;-88
2021/06/14 12:53:06;;;;;;;4.10;3.80;;;33.10;26.50;;;;;;5112131;28;20202;-89
2021/06/14 12:55:35;;;;;;;4.80;3.90;;;32.70;26.00;;;;;;5107629;27;20217;-88
2021/06/14 12:58:15;;;;;;;4.80;4.30;;;33.50;26.20;;;;;;5117574;28;20200;-89